Address 0x4cd5c9387995987d8b2a03cfa33ddcd2673ffc97 1

 
 
Txn Hash Method
Block
From
To
Value [Txn Fee]
0x381ef5fdf3ab7ba160ca611bebf6a88208209e98de2dc454c092f4d0943aef24Deposit286144842022-05-22 3:28:191 hr 49 mins ago0x4cd5c9387995987d8b2a03cfa33ddcd2673ffc97OUT 0xd814b26554204245a30f8a42c289af582421bf040 MATIC0.008722952 53
0x342ecd23899e444772bc135bdb961307b023aead265f43b0c58ad977f4887143Approve286144782022-05-22 3:28:071 hr 49 mins ago0x4cd5c9387995987d8b2a03cfa33ddcd2673ffc97OUT USD Coin0 MATIC0.001913730386 32.932892553
0x1b7d8fcdd4516179814aaeb8ca1158c0b1a0e96c8f0fa309b7ec8c183c82137fSwap Exact Token...286144502022-05-22 3:27:071 hr 50 mins ago0x4cd5c9387995987d8b2a03cfa33ddcd2673ffc97OUT SushiSwap: Router0 MATIC0.004102433331 34.019963111
0x67bca7e66a7627acf7ef7b95ef4dd08f726d2559d8e0f190169eedf0bd9b198fRemove Liquidity...286144102022-05-22 3:25:471 hr 52 mins ago0x4cd5c9387995987d8b2a03cfa33ddcd2673ffc97OUT SushiSwap: Router0 MATIC0.006795233813 36.8947264
0x8d97d6253b0c707a45c01c6a2ba98404d54053094e95efd764954a55dd5f5cccWithdraw286143932022-05-22 3:25:091 hr 52 mins ago0x4cd5c9387995987d8b2a03cfa33ddcd2673ffc97OUT 0xd814b26554204245a30f8a42c289af582421bf040 MATIC0.00893178 60
0x1e0a4a2521c42a5d58116758fdd74e2962aba3211b718cbde3879217d16e836eSwap Exact Token...286139562022-05-22 3:10:112 hrs 7 mins ago0x4cd5c9387995987d8b2a03cfa33ddcd2673ffc97OUT SushiSwap: Router0 MATIC0.008805667501 44.100000008
0x0153f1e71a6f4f9f113202b891efcf0c8d7d1f314c46d7255c9bff1c327308f30x0d6f24af286138772022-05-22 3:07:252 hrs 10 mins ago0x4cd5c9387995987d8b2a03cfa33ddcd2673ffc97OUT 0xd814b26554204245a30f8a42c289af582421bf040 MATIC0.00971781657
0xdc2df415b1f31804bb5a9debb8aafd9dd441ae9422ff28312157e0b4f8bdf295Swap Exact Token...286138542022-05-22 3:06:392 hrs 11 mins ago0x4cd5c9387995987d8b2a03cfa33ddcd2673ffc97OUT SushiSwap: Router0 MATIC0.005911419507 31.306007656
0xa642ef28891a758fc1d04354b51a14b71afe396d846c63d4b9866fcaa221bcbbSwap Exact Token...286138332022-05-22 3:05:572 hrs 12 mins ago0x4cd5c9387995987d8b2a03cfa33ddcd2673ffc97OUT SushiSwap: Router0 MATIC0.0038293563 33.95
0xbc99773e18d1c351892f2cc46908a81525aa62b62f0d26b0b5a3c7aa0232b0a0Swap Exact Token...286137812022-05-22 3:04:092 hrs 13 mins ago0x4cd5c9387995987d8b2a03cfa33ddcd2673ffc97OUT SushiSwap: Router0 MATIC0.008199568645 31.23788
0xe19a617d4d4edcbd79e34ca86b6fd84cea319646f1f7e4969c012f81f6b858f3Swap Exact Token...286136472022-05-22 2:59:302 hrs 18 mins ago0x4cd5c9387995987d8b2a03cfa33ddcd2673ffc97OUT SushiSwap: Router0 MATIC0.004203872856 33.533066297
0x13b461dbae84750b59f40921f3d1762f78a39c77fc9460084510ba2f3f017f10Harvest All286136152022-05-22 2:58:222 hrs 19 mins ago0x4cd5c9387995987d8b2a03cfa33ddcd2673ffc97OUT 0xd814b26554204245a30f8a42c289af582421bf040 MATIC0.019725249 57
0x1543b6c75eae3915a1ed20d3a87b19b2f70f0e092ecb5460dced1b4411f1efd5Deposit285922462022-05-21 14:39:1214 hrs 38 mins ago0x4cd5c9387995987d8b2a03cfa33ddcd2673ffc97OUT 0xd814b26554204245a30f8a42c289af582421bf040 MATIC0.00649566 46
0x241ef742a8eba2abf578c93ce7430b49b6e0712b6a109315a082550ad49e88f7Approve285922402022-05-21 14:39:0014 hrs 39 mins ago0x4cd5c9387995987d8b2a03cfa33ddcd2673ffc97OUT SushiSwap: SUSHI Token0 MATIC0.001757238612 33.949741354
0xc7056e606ac254ce97e407f11211edbbdd683b033fb58ee021455c04e44ae1f6Deposit285922252022-05-21 14:38:3014 hrs 39 mins ago0x4cd5c9387995987d8b2a03cfa33ddcd2673ffc97OUT 0xd814b26554204245a30f8a42c289af582421bf040 MATIC0.006274216 46
0x439ed546f3e4284e29283fa06fce65707da5f6d4609169f179a10c2b79aa6c85Approve285922172022-05-21 14:38:1414 hrs 39 mins ago0x4cd5c9387995987d8b2a03cfa33ddcd2673ffc97OUT Wrapped BTC: WBTC Token0 MATIC0.001703297731 32.930510626
0x986387c8b10ced97f7b823f089055a44fc50af719a8e26c85a03d44e704a8c0cDeposit285922062022-05-21 14:37:5214 hrs 40 mins ago0x4cd5c9387995987d8b2a03cfa33ddcd2673ffc97OUT 0xd814b26554204245a30f8a42c289af582421bf040 MATIC0.005991316 46
0x5d6eb29fa552f0c6ad21baf1c6eaf49771752888eb27444adae6d3ae271279fdApprove285922012022-05-21 14:37:4214 hrs 40 mins ago0x4cd5c9387995987d8b2a03cfa33ddcd2673ffc97OUT Wrapped Ether0 MATIC0.001440468896 31.036561587
0x676edadea7edef72c017e7b91372baed2dd29d8afa027dca9afa61112cead29bDeposit285921902022-05-21 14:37:1614 hrs 40 mins ago0x4cd5c9387995987d8b2a03cfa33ddcd2673ffc97OUT 0xd814b26554204245a30f8a42c289af582421bf040 MATIC0.00610535 46
0xedd1e3194375bb76524c7a703141c10f37dfb52d60d7dc65a385eca1b58fd779Approve285921852022-05-21 14:37:0614 hrs 40 mins ago0x4cd5c9387995987d8b2a03cfa33ddcd2673ffc97OUT Polygon: WMATIC Token0 MATIC0.001631350296 35.398726187
0xf5b2513935e70f3ecb646827a8c1a668fa5ff89c23b18cb7cd95e65726a426dfDeposit285921712022-05-21 14:36:3814 hrs 41 mins ago0x4cd5c9387995987d8b2a03cfa33ddcd2673ffc97OUT 0xd814b26554204245a30f8a42c289af582421bf040 MATIC0.006784264 46
0xb8ba5aa8b3da2f7c08167235389bae5963bb571c05a672308312669df928ca2cApprove285921612022-05-21 14:36:1814 hrs 41 mins ago0x4cd5c9387995987d8b2a03cfa33ddcd2673ffc97OUT USD Coin0 MATIC0.001812236719 31.186314228
0xc40c8248c6c4257b82deb5390d4ca588fd4a5c77b3148f5f37d7353dacd3fb510x0d6f24af285921482022-05-21 14:35:5214 hrs 42 mins ago0x4cd5c9387995987d8b2a03cfa33ddcd2673ffc97OUT 0xd814b26554204245a30f8a42c289af582421bf040 MATIC0.007841896 46
0x0a851079343b7e749ae177d3d9ff21fabcf54c9a942ab55d32510aac5ac0ee01Swap Exact Token...285921352022-05-21 14:35:2614 hrs 42 mins ago0x4cd5c9387995987d8b2a03cfa33ddcd2673ffc97OUT SushiSwap: Router0 MATIC0.005922545107 31.364927195
0xc3fc9e2e01b9703daa437993e7c82d3b4dfea12cc2e9d785973e8cb75caf65cdSwap Exact Token...285921122022-05-21 14:34:3614 hrs 43 mins ago0x4cd5c9387995987d8b2a03cfa33ddcd2673ffc97OUT SushiSwap: Router0 MATIC0.003429033985 30.400854524
[ Download CSV Export 
Latest 4 internal transactions
Parent Txn Hash Block From To Value
0xb6c8bee7e3e0194c098eb5a239250c46fae5d4f5ce3fc18ce8695f5a3e4ebd4b283928372022-05-16 14:50:595 days 14 hrs ago SushiSwap: Router0x4cd5c9387995987d8b2a03cfa33ddcd2673ffc977.107056154303102522 MATIC
0x241dda478e486659cecff8509a375ea612f7b4b61a9500f56f61357ccb94866c282178452022-05-12 5:27:249 days 23 hrs ago 0xc5017be80b4446988e8686168396289a9a62668e0x4cd5c9387995987d8b2a03cfa33ddcd2673ffc978.990716047774722599 MATIC
0x7e4df52fff9b7eeaa689d21ed040a6a910561ed2c43b3b28ca01d5221b0c15bc277158442022-04-29 12:09:5022 days 17 hrs ago SushiSwap: Router0x4cd5c9387995987d8b2a03cfa33ddcd2673ffc975.041982960935422715 MATIC
0x34383679c5d5fd7c76a441e1da2e9b15f492a6aa2b011aaa0a2c3ab21afa656d276255072022-04-27 5:34:1324 days 23 hrs ago SushiSwap: Router0x4cd5c9387995987d8b2a03cfa33ddcd2673ffc971.57675548324897094 MATIC
[ Download CSV Export 
Loading

Contract Name:
0 MATIC

Compiler Version
0

Optimization Enabled:
0 MATIC

Other Settings:
-NA-
Block Transaction Gas Used Reward
Age Block Fee Address BC Fee Address Voting Power Jailed Incoming
Block Uncle Number Difficulty Gas Used Reward
Loading
Loading
Make sure to use the "Vote Down" button for any spammy posts, and the "Vote Up" for interesting conversations.